Atwood, California
Current Conditions -  °F | °C
As of 11:53 AM on Friday 31 Oct 2014 (Local Time) from KFUL Reporting Station
Overcast Overcast  
Wind Chill: 71°   Ceiling: 3900
Heat Index: 71°   Visibility: 10mi
Dew Point: 55°   Wind: 0mph
Humidity: 57%   Direction: NA
Pressure: 29.93"   Gusts: NA
Location:  33.87°N, 117.83°W
Report Text: KFUL 311853Z 00000KT 10SM SCT030 BKN039 OVC047 22/13 A2993 RMK AO2 SLP133 T02170128
Loading
Personal Weather Stations






























Interactive Weather Map
Tropical Storm Tracking
New forecast layout! Learn more

10-Day Weather Forecast

Advertisements
Track Severe Weather on mobile